Durham, NC

5:32 AM EDT en Octubre 22, 2014 (GMT -0400)
Trinity Park | Change Station
CLOSE
Current Station
Estación meteorológica personal
Location: Durham, NC
Altura: 400 ft
Estaciones meteorológicas cercanas

Alt 400 ft 36.01 °N, 78.91 °W | Updated 1 second ago

Parcialmente nublado
Parcialmente nublado
48.5 ° F
Sensación térmica 48 ° F
N
0.0
Viento Variable Viento desde Oeste
Gusts 1.0 mph

Hoy
Alta -- | Baja -- ° F
--% Posibilidad de precipitaciones
Ayer
Alta -- | Baja -- ° F
Precip. -- pul
7:28 AM 6:30 PM
Creciente menguante, 2% visible
Presión 29.93 pul
Visibilidad 10.0 Millas
Nubes Baja 5000 ft
Vientos helados 48 ° F
Punto de rocío 43 ° F
Humedad 82%
Precipitaciones 0.00 pul
Espesor de la nieve No disponible.
UV 0 de una escala de 12
Polen 2.00 de una escala de 12
PM2.5 Buena
Flu Activity Sporadic
METAR KRDU 220851Z VRB04KT 10SM FEW050 11/05 A2994 RMK AO2 SLP135 T01060050 53001

More Conditions Fewer Conditions

Presión 29.93 pul
Visibilidad 10.0 Millas
Nubes Baja 5000 ft
Vientos helados 48 ° F
Punto de rocío 43 ° F
Humedad 82%
Precipitaciones 0.00 pul
Espesor de la nieve No disponible.
UV 0 de una escala de 12
Polen 2.00 de una escala de 12
PM2.5 Buena
Flu Activity Sporadic
METAR KRDU 220851Z VRB04KT 10SM FEW050 11/05 A2994 RMK AO2 SLP135 T01060050 53001

More Conditions Fewer Conditions

10-Day Weather Forecast

Almanac

Astronomía

Oct. 22, 2014 Salida Puesta
Hora real 7:28 AM EDT 6:30 PM EDT
Crepúsculo civil 7:02 AM EDT 6:56 PM EDT
Crepúsculo náutico 6:32 AM EDT 7:26 PM EDT
Crepúsculo astronómico 6:02 AM EDT 7:56 PM EDT
Luna 6:10 AM EDT 5:54 PM EDT
Horas de luz 11h 54m
Horas de luz
11h 02m
Tomorrow will be 2m 8s shorter.
Creciente menguante, 2% of the Moon is Illuminated
Hoy
Creciente menguante
Oct 23
Nueva
Oct 30
Cuarto creciente
Nov 6
Luna llena
Nov 14
Cuarto menguante

Extremos de hoy

Máximos del estado Bajos del estado

Community

WunderPhotos

Upload Photos

1,763,900 ¡fotos cargadas!

Nearby

Calidad del aire

  Calidad del aire Índice AQ Contaminante
Ayer Buena
PM2.5
Ayer Buena
OZONE
Real Buena
PM2.5
Miércoles Buena
OZONE
Miércoles Buena
PM2.5
Jueves Buena
PM2.5
Jueves Buena
OZONE
Viernes Buena
PM2.5
Viernes Buena
OZONE

Grosos de nieve

Estación Profundido Altura
No tenemos constancia de nieve nueva.

Actividad de terremotos

Ciudad Distance Mag. Tiempo y dato
No hay informes recientes de la actividad sísmica.
Magnitud mínima muestra es 2,5.

Temperaturas de aguas costeras

Lugar Temperatura
Sin partes meteorológicos de las estaciones

Estaciones meteorológicas cercanas